createdAt,value
2019-06-10T05:25:25.370Z,15.90
2019-06-10T05:27:53.715Z,15.90
2019-06-10T05:30:22.797Z,15.80
2019-06-10T05:32:52.396Z,15.60
2019-06-10T05:35:21.054Z,15.40
2019-06-10T05:37:50.092Z,15.40
2019-06-10T05:40:18.317Z,15.30
2019-06-10T05:42:46.301Z,15.40
2019-06-10T05:45:14.302Z,15.50
2019-06-10T05:47:42.831Z,15.60
2019-06-10T05:50:12.902Z,15.80
2019-06-10T05:52:42.674Z,16.00
2019-06-10T05:55:12.124Z,16.20
2019-06-10T05:57:42.632Z,16.40
2019-06-10T06:00:13.926Z,16.50
2019-06-10T06:02:39.951Z,16.50
2019-06-10T06:05:08.238Z,16.50
2019-06-10T06:07:37.507Z,16.20
2019-06-10T06:10:05.771Z,16.30
2019-06-10T06:12:35.665Z,16.30
2019-06-10T06:15:09.650Z,16.20
2019-06-10T06:17:38.618Z,16.30
2019-06-10T06:20:07.322Z,16.40
2019-06-10T06:22:35.662Z,16.60
2019-06-10T06:25:07.903Z,16.60
2019-06-10T06:27:37.069Z,16.70
2019-06-10T06:30:11.116Z,16.70
2019-06-10T06:32:37.864Z,16.80
2019-06-10T06:35:06.340Z,16.80
2019-06-10T06:37:36.432Z,16.90
2019-06-10T06:40:05.565Z,16.90
2019-06-10T06:42:35.117Z,16.90
2019-06-10T06:45:03.674Z,16.90
2019-06-10T06:47:34.068Z,16.90
2019-06-10T06:50:02.767Z,16.90
2019-06-10T06:52:55.614Z,16.70
2019-06-10T06:55:02.530Z,16.50
2019-06-10T06:57:31.634Z,16.30
2019-06-10T06:59:59.969Z,16.20
2019-06-10T07:02:27.941Z,16.30
2019-06-10T07:04:56.435Z,16.40
2019-06-10T07:07:25.279Z,16.60
2019-06-10T07:09:54.724Z,16.80
2019-06-10T07:12:23.966Z,16.90
2019-06-10T07:14:52.693Z,17.10
2019-06-10T07:17:22.752Z,17.10
2019-06-10T07:19:52.727Z,17.10
2019-06-10T07:22:20.135Z,17.20
2019-06-10T07:24:48.128Z,17.30
2019-06-10T07:27:16.110Z,17.30
2019-06-10T07:29:46.907Z,17.50
2019-06-10T07:32:13.805Z,17.40
2019-06-10T07:34:45.002Z,17.40
2019-06-10T07:37:12.999Z,17.30
2019-06-10T07:39:44.009Z,17.30
2019-06-10T07:42:13.473Z,17.20
2019-06-10T07:44:43.162Z,17.30
2019-06-10T07:47:12.465Z,17.30
2019-06-10T07:49:41.239Z,17.20
2019-06-10T07:52:15.533Z,17.20
2019-06-10T07:54:39.374Z,17.20
2019-06-10T07:57:07.621Z,17.20
2019-06-10T07:59:35.736Z,17.30
2019-06-10T08:02:03.978Z,17.10
2019-06-10T08:04:33.614Z,17.20
2019-06-10T08:07:03.351Z,17.20
2019-06-10T08:09:35.802Z,17.20
2019-06-10T08:12:05.453Z,17.30
2019-06-10T08:14:32.962Z,17.20
2019-06-10T08:17:02.967Z,17.20
2019-06-10T08:19:35.770Z,17.20
2019-06-10T08:22:02.686Z,17.20
2019-06-10T08:24:29.669Z,17.40
2019-06-10T08:26:57.692Z,17.50
2019-06-10T08:29:25.755Z,17.40
2019-06-10T08:31:53.893Z,17.60
2019-06-10T08:34:22.204Z,17.70
2019-06-10T08:36:53.568Z,17.90
2019-06-10T08:39:22.456Z,17.70
2019-06-10T08:41:49.798Z,17.90
2019-06-10T08:44:17.889Z,18.00
2019-06-10T08:46:47.278Z,18.00
2019-06-10T08:49:15.609Z,18.00
2019-06-10T08:51:48.837Z,18.20
2019-06-10T08:54:15.967Z,18.30
2019-06-10T08:56:47.635Z,18.50
2019-06-10T08:59:13.657Z,18.60
2019-06-10T09:01:46.043Z,18.80
2019-06-10T09:04:13.294Z,18.80
2019-06-10T09:06:46.299Z,18.90
2019-06-10T09:09:12.907Z,19.00
2019-06-10T09:11:46.861Z,19.00
2019-06-10T09:14:12.634Z,19.10
2019-06-10T09:16:43.835Z,19.20
2019-06-10T09:19:12.698Z,19.30
2019-06-10T09:21:44.860Z,19.40
2019-06-10T09:24:12.841Z,19.40
2019-06-10T09:26:44.571Z,19.40
2019-06-10T09:29:10.312Z,19.50
2019-06-10T09:31:39.481Z,19.50
2019-06-10T09:34:12.705Z,19.60
2019-06-10T09:36:40.918Z,19.70
2019-06-10T09:39:08.611Z,19.70
2019-06-10T09:41:41.472Z,19.70
2019-06-10T09:44:06.706Z,19.80
2019-06-10T09:46:34.776Z,19.90
2019-06-10T09:49:04.637Z,20.00
2019-06-10T09:51:33.078Z,20.00
2019-06-10T09:54:06.436Z,20.00
2019-06-10T09:56:33.154Z,20.00
2019-06-10T09:59:03.760Z,20.00
2019-06-10T10:01:32.672Z,20.00
2019-06-10T10:04:00.909Z,20.00
2019-06-10T10:06:28.899Z,20.00
2019-06-10T10:08:58.342Z,20.00
2019-06-10T10:11:28.578Z,20.00
2019-06-10T10:13:57.047Z,20.10
2019-06-10T10:16:25.119Z,20.10
2019-06-10T10:19:00.388Z,20.10
2019-06-10T10:21:22.807Z,20.10
2019-06-10T10:24:04.368Z,20.10
2019-06-10T10:26:20.496Z,20.10
2019-06-10T10:28:50.323Z,20.10
2019-06-10T10:31:18.152Z,20.10
2019-06-10T10:33:46.767Z,20.10
2019-06-10T10:36:14.806Z,20.10
2019-06-10T10:38:42.841Z,20.00
2019-06-10T10:41:13.431Z,20.00
2019-06-10T10:43:42.935Z,20.00
2019-06-10T10:46:13.484Z,20.00
2019-06-10T10:48:39.998Z,20.00
2019-06-10T10:51:07.975Z,20.00
2019-06-10T10:53:36.073Z,20.00
2019-06-10T10:56:04.156Z,20.10
2019-06-10T10:58:33.141Z,20.10
2019-06-10T11:01:04.054Z,20.00
2019-06-10T11:03:33.351Z,20.00
2019-06-10T11:06:01.245Z,20.00
2019-06-10T11:08:32.378Z,19.90
2019-06-10T11:11:03.575Z,19.90
2019-06-10T11:13:33.356Z,19.90
2019-06-10T11:16:03.520Z,20.00
2019-06-10T11:18:31.176Z,19.90
2019-06-10T11:21:02.468Z,19.80
2019-06-10T11:23:29.382Z,19.80
2019-06-10T11:25:58.903Z,19.90
2019-06-10T11:28:27.361Z,19.90
2019-06-10T11:30:56.819Z,20.00
2019-06-10T11:33:25.194Z,20.00
2019-06-10T11:35:56.527Z,20.00
2019-06-10T11:38:23.540Z,20.00
2019-06-10T11:40:55.963Z,19.90
2019-06-10T11:43:22.970Z,19.90
2019-06-10T11:45:55.121Z,19.70
2019-06-10T11:48:20.769Z,19.60
2019-06-10T11:50:49.209Z,19.50
2019-06-10T11:53:17.647Z,19.50
2019-06-10T11:55:45.770Z,19.40
2019-06-10T11:58:13.784Z,19.40
2019-06-10T12:00:42.657Z,19.30
2019-06-10T12:03:13.030Z,19.20
2019-06-10T12:05:40.607Z,19.10
2019-06-10T12:08:08.623Z,19.00
2019-06-10T12:10:36.657Z,18.90
2019-06-10T12:13:07.337Z,18.90
2019-06-10T12:16:12.662Z,18.90
2019-06-10T12:18:08.397Z,18.90
2019-06-10T12:20:33.848Z,19.00
2019-06-10T12:23:04.344Z,18.80
2019-06-10T12:25:38.856Z,18.80
2019-06-10T12:28:04.541Z,18.70
2019-06-10T12:30:34.244Z,18.90
2019-06-10T12:33:04.947Z,18.90
2019-06-10T12:35:33.194Z,18.80
2019-06-10T12:38:04.432Z,18.90
2019-06-10T12:40:30.054Z,19.00
2019-06-10T12:42:59.713Z,19.10
2019-06-10T12:45:28.004Z,19.20
2019-06-10T12:47:58.329Z,19.20
2019-06-10T12:50:25.973Z,19.30
2019-06-10T12:52:54.981Z,19.40
2019-06-10T12:55:37.898Z,19.30
2019-06-10T12:57:56.139Z,19.20
2019-06-10T13:00:26.554Z,19.20
2019-06-10T13:02:55.279Z,19.00
2019-06-10T13:05:23.383Z,19.00
2019-06-10T13:07:53.591Z,19.00
2019-06-10T13:10:23.161Z,19.00
2019-06-10T13:12:53.136Z,19.10
2019-06-10T13:15:22.127Z,19.10
2019-06-10T13:17:53.660Z,19.10
2019-06-10T13:20:22.807Z,19.20
2019-06-10T13:22:50.771Z,19.20
2019-06-10T13:25:18.820Z,19.20
2019-06-10T13:27:46.846Z,19.00
2019-06-10T13:30:15.010Z,18.90
2019-06-10T13:32:43.627Z,18.90
2019-06-10T13:35:12.580Z,18.90
2019-06-10T13:37:42.709Z,18.80
2019-06-10T13:40:12.936Z,18.70
2019-06-10T13:42:42.387Z,18.70
2019-06-10T13:45:10.857Z,18.50
2019-06-10T13:47:39.095Z,18.60
2019-06-10T13:50:09.487Z,18.60
2019-06-10T13:52:38.535Z,18.70
2019-06-10T13:55:09.038Z,18.70
2019-06-10T13:57:37.077Z,18.80
2019-06-10T14:00:08.028Z,18.80
2019-06-10T14:02:35.806Z,18.80
2019-06-10T14:05:09.733Z,18.80
2019-06-10T14:07:35.235Z,18.90
2019-06-10T14:10:09.686Z,18.90
2019-06-10T14:12:34.422Z,19.00
2019-06-10T14:15:04.556Z,19.00
2019-06-10T14:17:32.895Z,18.90
2019-06-10T14:20:01.767Z,19.00
2019-06-10T14:22:30.141Z,19.10
2019-06-10T14:24:58.588Z,19.20
2019-06-10T14:27:26.701Z,19.10
2019-06-10T14:29:55.018Z,19.20
2019-06-10T14:32:23.286Z,19.20
2019-06-10T14:34:52.702Z,19.30
2019-06-10T14:37:34.914Z,19.30
2019-06-10T14:39:52.927Z,19.50
2019-06-10T14:42:22.852Z,19.70
2019-06-10T14:44:52.536Z,19.90
2019-06-10T14:47:19.778Z,19.80
2019-06-10T14:49:49.464Z,20.00
2019-06-10T14:52:17.514Z,20.10
2019-06-10T14:54:46.180Z,20.10
2019-06-10T14:57:15.456Z,20.20
2019-06-10T14:59:43.982Z,20.20
2019-06-10T15:02:14.435Z,20.20
2019-06-10T15:04:42.663Z,20.20
2019-06-10T15:07:11.469Z,20.10
2019-06-10T15:09:39.621Z,20.00
2019-06-10T15:12:08.156Z,20.10
2019-06-10T15:14:36.208Z,20.00
2019-06-10T15:17:04.335Z,19.90
2019-06-10T15:19:33.227Z,20.00
2019-06-10T15:22:03.080Z,20.00
2019-06-10T15:24:33.478Z,20.00
2019-06-10T15:27:12.176Z,20.00
2019-06-10T15:29:32.787Z,20.00
2019-06-10T15:32:10.610Z,20.00
2019-06-10T15:34:32.463Z,19.90
2019-06-10T15:37:02.612Z,19.90
2019-06-10T15:39:33.232Z,19.90
2019-06-10T15:42:03.017Z,19.60
2019-06-10T15:44:48.690Z,19.50
2019-06-10T15:47:03.064Z,19.40
2019-06-10T15:49:32.766Z,19.40
2019-06-10T15:52:03.232Z,19.50
2019-06-10T15:54:33.322Z,19.60
2019-06-10T15:57:03.347Z,19.60
2019-06-10T15:59:32.674Z,19.70
2019-06-10T16:02:02.673Z,19.80
2019-06-10T16:04:35.082Z,19.90
2019-06-10T16:07:06.208Z,20.00
2019-06-10T16:09:34.626Z,20.00
2019-06-10T16:12:03.634Z,20.00
2019-06-10T16:14:33.266Z,20.00
2019-06-10T16:17:03.108Z,19.90
2019-06-10T16:19:32.889Z,19.80
2019-06-10T16:22:03.191Z,19.60
2019-06-10T16:24:33.102Z,19.50
2019-06-10T16:27:00.493Z,19.40
2019-06-10T16:29:28.545Z,19.30
2019-06-10T16:31:56.596Z,19.50
2019-06-10T16:34:28.578Z,19.60
2019-06-10T16:36:54.305Z,19.70
2019-06-10T16:39:24.182Z,19.80
2019-06-10T16:41:52.352Z,19.80
2019-06-10T16:44:23.262Z,20.00
2019-06-10T16:46:52.539Z,20.00
2019-06-10T16:49:21.344Z,20.10
2019-06-10T16:51:49.466Z,20.10
2019-06-10T16:54:17.552Z,20.20
2019-06-10T16:56:45.694Z,20.10
2019-06-10T16:59:14.636Z,20.10
2019-06-10T17:01:45.253Z,20.10
2019-06-10T17:04:17.251Z,19.80
2019-06-10T17:06:49.509Z,20.10
2019-06-10T17:09:26.492Z,20.00
2019-06-10T17:11:59.231Z,20.00
2019-06-10T17:14:33.319Z,20.00
2019-06-10T17:17:04.867Z,20.00
2019-06-10T17:19:34.933Z,20.00
2019-06-10T17:22:06.100Z,20.00
2019-06-10T17:24:38.249Z,19.90
2019-06-10T17:27:15.439Z,19.90
2019-06-10T17:29:46.598Z,19.90
2019-06-10T17:32:15.891Z,19.90
2019-06-10T17:34:49.719Z,19.80
2019-06-10T17:37:20.507Z,19.80
2019-06-10T17:39:53.074Z,19.80
2019-06-10T17:42:28.280Z,19.80
2019-06-10T17:44:54.094Z,19.70
2019-06-10T17:47:26.463Z,19.80
2019-06-10T17:49:55.768Z,19.60
2019-06-10T17:52:28.141Z,19.60
2019-06-10T17:54:58.958Z,19.60
2019-06-10T17:57:33.955Z,19.60
2019-06-10T18:00:10.953Z,19.60
2019-06-10T18:02:39.252Z,19.60
2019-06-10T18:05:12.642Z,19.50
2019-06-10T18:07:42.753Z,19.60
2019-06-10T18:10:13.240Z,19.50
2019-06-10T18:13:12.778Z,19.50
2019-06-10T18:15:35.385Z,19.40
2019-06-10T18:18:05.126Z,19.40
2019-06-10T18:20:37.098Z,19.30
2019-06-10T18:23:09.615Z,19.30
2019-06-10T18:25:44.245Z,19.20
2019-06-10T18:28:16.735Z,19.20
2019-06-10T18:30:47.951Z,19.20
2019-06-10T18:33:25.680Z,19.30
2019-06-10T18:35:57.845Z,19.40
2019-06-10T18:38:35.474Z,19.30
2019-06-10T18:41:06.252Z,19.20
2019-06-10T18:43:37.040Z,19.00
2019-06-10T18:46:08.031Z,19.20
2019-06-10T18:48:43.182Z,19.00
2019-06-10T18:51:23.873Z,19.00
2019-06-10T18:53:54.935Z,19.10
2019-06-10T18:56:32.654Z,19.00
2019-06-10T18:59:15.803Z,19.10
2019-06-10T19:01:34.371Z,19.10
2019-06-10T19:04:04.383Z,19.00
2019-06-10T19:06:36.547Z,19.00
2019-06-10T19:09:09.503Z,18.80
2019-06-10T19:11:40.259Z,18.70
2019-06-10T19:14:12.640Z,18.60
2019-06-10T19:16:42.993Z,18.60
2019-06-10T19:19:13.960Z,18.70
2019-06-10T19:21:44.326Z,18.80
2019-06-10T19:24:14.702Z,18.70
2019-06-10T19:26:45.397Z,18.70
2019-06-10T19:29:30.823Z,18.70
2019-06-10T19:31:53.607Z,18.80
2019-06-10T19:34:26.434Z,18.90
2019-06-10T19:36:57.690Z,18.90
2019-06-10T19:39:28.585Z,18.90
2019-06-10T19:42:02.822Z,18.90
2019-06-10T19:44:34.320Z,18.90
2019-06-10T19:47:05.066Z,18.90
2019-06-10T19:49:35.439Z,19.00
2019-06-10T19:52:06.776Z,19.00
2019-06-10T19:54:39.073Z,19.10
2019-06-10T19:57:08.245Z,19.00
2019-06-10T20:00:01.225Z,19.00
2019-06-10T20:02:08.878Z,19.00
2019-06-10T20:04:39.714Z,19.00
2019-06-10T20:07:12.649Z,18.90
2019-06-10T20:09:45.118Z,18.90
2019-06-10T20:12:13.403Z,18.90
2019-06-10T20:14:43.657Z,18.80
2019-06-10T20:17:14.607Z,18.40
2019-06-10T20:19:45.895Z,18.10
2019-06-10T20:22:15.353Z,18.10
2019-06-10T20:24:45.352Z,18.20
2019-06-10T20:27:13.295Z,18.40
2019-06-10T20:29:42.983Z,18.20
2019-06-10T20:32:11.047Z,18.40
2019-06-10T20:34:39.354Z,18.50
2019-06-10T20:37:07.462Z,18.30
2019-06-10T20:39:35.710Z,17.90
2019-06-10T20:42:03.867Z,18.00
2019-06-10T20:44:32.579Z,18.00
2019-06-10T20:47:00.719Z,18.10
2019-06-10T20:49:28.749Z,18.20
2019-06-10T20:52:08.051Z,18.40
2019-06-10T20:54:27.453Z,18.40
2019-06-10T20:56:56.130Z,18.50
2019-06-10T20:59:26.242Z,18.40
2019-06-10T21:01:57.695Z,18.30
2019-06-10T21:04:25.848Z,18.20
2019-06-10T21:06:53.923Z,18.30
2019-06-10T21:09:22.471Z,18.20
2019-06-10T21:11:51.920Z,18.30
2019-06-10T21:14:22.755Z,18.30
2019-06-10T21:16:51.069Z,18.30
2019-06-10T21:19:19.713Z,18.30
2019-06-10T21:21:49.517Z,18.20
2019-06-10T21:24:17.406Z,18.10
2019-06-10T21:26:47.069Z,18.20
2019-06-10T21:29:15.265Z,18.10
2019-06-10T21:31:45.391Z,18.10
2019-06-10T21:34:12.949Z,18.10
2019-06-10T21:36:41.242Z,18.00
2019-06-10T21:39:09.293Z,18.00
2019-06-10T21:41:37.269Z,18.00
2019-06-10T21:44:05.265Z,18.00
2019-06-10T21:46:33.276Z,18.00
2019-06-10T21:49:01.324Z,18.00
2019-06-10T21:51:31.728Z,18.00
2019-06-10T21:53:59.266Z,18.10
2019-06-10T21:56:27.279Z,18.10
2019-06-10T21:58:55.761Z,18.00
2019-06-10T22:01:23.825Z,17.80
2019-06-10T22:04:00.214Z,17.80
2019-06-10T22:06:22.804Z,17.70
2019-06-10T22:08:54.467Z,17.40
2019-06-10T22:11:23.120Z,17.30
2019-06-10T22:13:52.840Z,17.00
2019-06-10T22:16:22.472Z,16.60
2019-06-10T22:18:50.772Z,16.60
2019-06-10T22:21:18.857Z,16.60
2019-06-10T22:23:46.849Z,16.80
2019-06-10T22:26:14.824Z,17.00
2019-06-10T22:28:43.345Z,17.10
2019-06-10T22:31:19.707Z,17.20
2019-06-10T22:33:43.122Z,17.20
2019-06-10T22:36:12.939Z,17.30
2019-06-10T22:38:40.664Z,17.40
2019-06-10T22:41:08.645Z,17.40
2019-06-10T22:43:36.720Z,17.40
2019-06-10T22:46:04.724Z,17.20
2019-06-10T22:48:33.258Z,17.00
2019-06-10T22:51:01.419Z,16.80
2019-06-10T22:53:29.447Z,16.80
2019-06-10T22:55:59.072Z,16.80
2019-06-10T22:58:27.318Z,16.80
